CheckWX is a tool to help pilots better visualize weather data.  It is not intended as a substitute for an official pre-flight weather briefing.

04:15:31 UTC

CYXQ METAR
Beaver Creek Airport
Beaver Creek, Canada
Current

6 hours ago

CYXQ 242200Z VRB03KT 30SM BKN050 04/M13 A3004 RMK CU7 CLIMAT 4.5/-2.8/0.0/LAST STFD OBS/NXT 251600Z SLP207
Observed
Apr-24 @ 22:00 UTC
Wind
  • Variable at 3 KTS
Visibility
30 SM
Flight Rules
VFR
Cloud Levels
  • Broken at 5,000' AGL
Temperature
C / 39°F
Dewpoint
-13°C / 9°F
Humidity
28%
Altimeter
30.04" Hg
Pressure
1017.32 hPa
Previous

7 hours ago

CYXQ 242100Z 25005KT 30SM BKN050 OVC240 03/M11 A3004 RMK CU7CI1 SLP210
Observed
Apr-24 @ 21:00 UTC
Wind
  • 250° at 5 KTS
Visibility
30 SM
Flight Rules
VFR
Cloud Levels
  • Broken at 5,000' AGL
  • Overcast at 24,000' AGL
Temperature
C / 37°F
Dewpoint
-11°C / 12°F
Humidity
35%
Altimeter
30.04" Hg
Pressure
1017.32 hPa
Previous

8 hours ago

CYXQ 242000Z 30003KT 270V360 30SM BKN035 BKN240 02/M08 A3004 RMK CU6CI1 SLP211
Observed
Apr-24 @ 20:00 UTC
Wind
  • 300° at 3 KTS
Visibility
30 SM
Flight Rules
VFR
Cloud Levels
  • Broken at 3,500' AGL
  • Broken at 24,000' AGL
Temperature
C / 36°F
Dewpoint
-8°C / 18°F
Humidity
48%
Altimeter
30.04" Hg
Pressure
1017.32 hPa